KEDU

University Airport

Davis, California, USA
METAR KEDU 260300Z AUTO 17010KT 10SM CLR 12/02 A3015 RMK AO1
Observed Flight Rules
Feb-26 @ 03:00 UTC (21 minutes ago) Visual Flight Rules
Wind Visibility Clouds
170° at 10 knots 10 miles
  • Clear skies
Temperatures Readings
Current 12°C / 54°F
Dewpoint 2°C / 36°F
Humidity 51%
Altimeter 30.15" Hg
Pressure 1021 hPa
Elevation 21
METAR KEDU 260300Z AUTO 17010KT 10SM CLR 12/02 A3015 RMK AO1
Observed Flight Rules
Feb-26 @ 03:00 UTC
(21 minutes ago)
VFR
Wind Visibility
170° at 10 knots 10 miles
Clouds
  • Clear skies
Temperature Dewpoint
12°C / 54°F 2°C / 36°F
Humidity Altimeter Pressure
51% 30.15" Hg 1021 hPa